Aviation Digital Data Service (ADDS)

Output produced by METARs form (2200 UTC 30 September 2016)
found at http://www.aviationweather.gov/adds/metars/
 
KDEN 302103Z 3021/0124 03007KT P6SM SCT080 BKN150 
     FM302200 28012KT P6SM VCSH BKN070 BKN150 
     FM010300 24010KT P6SM BKN080 
     FM011400 VRB05KT P6SM SCT080 SCT140 
     FM011800 11005KT P6SM VCTS SCT100CB BKN200